Time;durP1;ratioP1;P1;durP2;ratioP2;P2;SDS_P1;SDS_P2;PMS_P1;PMS_P2;Temp;Humidity;BMP_temperature;BMP_pressure;BME280_temperature;BME280_humidity;BME280_pressure;Samples;Min_cycle;Max_cycle;Signal;HPM_P1;HPM_P2
2022/08/17 00:01:42;;;;;;;6.10;5.70;;;24.60;42.70;;;;;;20699;6738;276064;-87
2022/08/17 00:04:19;;;;;;;5.90;5.60;;;24.70;43.00;;;;;;20639;6756;276045;-86
2022/08/17 00:06:56;;;;;;;6.10;5.70;;;24.70;43.00;;;;;;20561;6753;282454;-86
2022/08/17 00:09:35;;;;;;;6.55;6.05;;;24.80;42.90;;;;;;20657;6753;276497;-87
2022/08/17 00:12:07;;;;;;;5.60;5.30;;;24.80;42.80;;;;;;20805;6771;118211;-87
2022/08/17 00:14:55;;;;;;;6.20;5.73;;;24.20;43.30;;;;;;20635;6758;313414;-86
2022/08/17 00:17:24;;;;;;;6.20;5.80;;;24.30;43.40;;;;;;20485;6768;339353;-86
2022/08/17 00:19:59;;;;;;;6.30;5.90;;;24.40;43.00;;;;;;20593;6768;277733;-86
2022/08/17 00:22:35;;;;;;;6.50;5.40;;;24.50;42.60;;;;;;20815;6768;117062;-87
2022/08/17 00:25:11;;;;;;;6.03;5.53;;;24.20;42.80;;;;;;20820;6768;117752;-86
2022/08/17 00:27:48;;;;;;;5.30;4.90;;;23.80;43.30;;;;;;20785;6776;117568;-86
2022/08/17 00:30:24;;;;;;;5.67;5.37;;;23.40;43.60;;;;;;20818;6770;117237;-86
2022/08/17 00:32:59;;;;;;;5.67;5.27;;;23.20;44.10;;;;;;20882;6774;67275;-86
2022/08/17 00:49:18;;;;;;;6.00;5.60;;;22.60;44.60;;;;;;21033;6514;277049;-85
2022/08/17 00:51:44;;;;;;;5.70;5.40;;;22.80;45.10;;;;;;20960;6782;117381;-85
2022/08/17 00:54:09;;;;;;;5.90;5.50;;;22.90;44.70;;;;;;20718;6782;305391;-85
2022/08/17 00:56:35;;;;;;;5.77;5.47;;;23.20;45.30;;;;;;20848;6782;119510;-86
2022/08/17 00:59:01;;;;;;;6.03;5.62;;;23.20;44.40;;;;;;20627;6818;278380;-86
2022/08/17 01:01:26;;;;;;;5.53;5.23;;;23.40;44.40;;;;;;20830;6821;123343;-85
2022/08/17 01:03:53;;;;;;;5.97;5.57;;;23.30;44.30;;;;;;20597;6821;278508;-85
2022/08/17 01:06:18;;;;;;;6.07;5.67;;;23.40;44.10;;;;;;20826;6821;117248;-85
2022/08/17 01:08:44;;;;;;;5.80;5.40;;;23.30;44.10;;;;;;20610;6821;337449;-85
2022/08/17 01:11:09;;;;;;;5.37;4.97;;;23.50;44.20;;;;;;20803;6826;117776;-86
2022/08/17 01:13:35;;;;;;;5.20;4.80;;;23.30;44.10;;;;;;20821;6826;117632;-87
2022/08/17 01:16:00;;;;;;;5.18;4.78;;;23.10;44.40;;;;;;20778;6826;117046;-85
2022/08/17 01:22:00;;;;;;;5.30;4.80;;;22.70;44.80;;;;;;21203;6502;67027;-85
2022/08/17 01:24:26;;;;;;;5.80;5.30;;;22.70;44.80;;;;;;20706;6786;278561;-85
2022/08/17 01:26:52;;;;;;;5.40;4.93;;;23.10;44.20;;;;;;20850;6786;117028;-85
2022/08/17 01:29:19;;;;;;;5.47;5.10;;;23.10;44.10;;;;;;20821;6821;117518;-88
2022/08/17 01:31:45;;;;;;;5.70;5.30;;;23.00;44.40;;;;;;20527;6821;308257;-85
2022/08/17 01:34:11;;;;;;;5.03;4.72;;;23.20;44.30;;;;;;20383;6866;340517;-85
2022/08/17 01:36:38;;;;;;;5.40;5.10;;;23.50;43.40;;;;;;20450;6864;278461;-86
2022/08/17 01:39:05;;;;;;;6.27;4.90;;;23.80;42.70;;;;;;20693;6866;117793;-87
2022/08/17 01:41:34;;;;;;;6.03;5.03;;;23.70;42.80;;;;;;20547;6840;285770;-87
2022/08/17 01:43:59;;;;;;;5.50;5.20;;;23.80;42.70;;;;;;20501;6840;279110;-86
2022/08/17 01:46:25;;;;;;;5.47;5.05;;;23.90;42.20;;;;;;20549;6840;308107;-86
2022/08/17 01:48:50;;;;;;;5.53;4.90;;;24.10;42.10;;;;;;20753;6840;117266;-86
2022/08/17 01:51:17;;;;;;;5.55;5.07;;;23.40;42.70;;;;;;20772;6840;117286;-86
2022/08/17 01:53:42;;;;;;;5.22;4.93;;;23.40;42.70;;;;;;20547;6840;336993;-87
2022/08/17 01:56:08;;;;;;;4.90;4.60;;;23.50;42.90;;;;;;20492;6855;278269;-86
2022/08/17 01:58:33;;;;;;;5.47;5.07;;;23.70;42.70;;;;;;20672;6864;117596;-86
2022/08/17 02:00:59;;;;;;;5.40;5.00;;;23.50;42.70;;;;;;20499;6849;310268;-87
2022/08/17 02:03:24;;;;;;;4.90;4.60;;;23.60;43.00;;;;;;20739;6849;117331;-86
2022/08/17 02:05:52;;;;;;;5.00;4.60;;;23.50;43.20;;;;;;20544;6849;308069;-86
2022/08/17 02:08:15;;;;;;;5.17;4.77;;;23.60;43.40;;;;;;20799;6849;116805;-86
2022/08/17 02:10:41;;;;;;;5.13;4.60;;;23.50;43.30;;;;;;20774;6849;118043;-87
2022/08/17 02:13:07;;;;;;;5.17;4.77;;;23.30;43.60;;;;;;20557;6849;278652;-86
2022/08/17 02:15:33;;;;;;;4.73;4.43;;;23.30;43.30;;;;;;20795;6837;117751;-87
2022/08/17 02:17:58;;;;;;;4.30;4.00;;;23.30;43.30;;;;;;20728;6852;118795;-87
2022/08/17 02:20:24;;;;;;;5.40;5.00;;;23.10;43.50;;;;;;20548;6852;311248;-87
2022/08/17 02:22:50;;;;;;;5.03;4.53;;;23.30;43.50;;;;;;20555;6849;308025;-87
2022/08/17 02:25:15;;;;;;;5.03;4.63;;;23.70;42.80;;;;;;20555;6847;309401;-87
2022/08/17 02:27:41;;;;;;;5.45;5.05;;;23.90;42.00;;;;;;20528;6847;308698;-87
2022/08/17 02:30:08;;;;;;;5.00;4.70;;;24.10;42.10;;;;;;20715;6862;119399;-87
2022/08/17 02:32:33;;;;;;;5.65;5.15;;;23.90;42.20;;;;;;20562;6846;337607;-87
2022/08/17 02:34:59;;;;;;;5.03;4.70;;;24.00;42.60;;;;;;20769;6847;117565;-87
2022/08/17 02:37:25;;;;;;;4.80;4.40;;;23.80;42.70;;;;;;20757;6847;116292;-87
2022/08/17 02:39:50;;;;;;;5.45;5.15;;;23.50;43.30;;;;;;20522;6847;307658;-87
2022/08/17 02:42:16;;;;;;;4.93;4.53;;;23.70;44.10;;;;;;20542;6847;307806;-87
2022/08/17 02:44:41;;;;;;;4.75;4.50;;;23.90;43.10;;;;;;20750;6847;117117;-87
2022/08/17 02:49:45;;;;;;;4.80;4.60;;;23.40;43.40;;;;;;20646;6736;116864;-95
2022/08/17 02:52:18;;;;;;;5.13;4.83;;;23.10;44.00;;;;;;20702;6734;276218;-87
2022/08/17 02:54:54;;;;;;;5.17;4.87;;;23.30;44.70;;;;;;20945;6729;117284;-88
2022/08/17 02:57:29;;;;;;;5.87;5.00;;;23.20;44.30;;;;;;20548;6729;308546;-87
2022/08/17 03:00:06;;;;;;;5.60;5.30;;;23.40;44.00;;;;;;20563;6773;308650;-87
2022/08/17 03:02:41;;;;;;;5.70;5.40;;;23.60;44.30;;;;;;20608;6768;307151;-87
2022/08/17 03:05:16;;;;;;;5.50;5.20;;;23.80;44.20;;;;;;20791;6768;119429;-87
2022/08/17 03:07:52;;;;;;;6.07;5.60;;;23.40;44.10;;;;;;20799;6780;117185;-87
2022/08/17 03:10:29;;;;;;;6.53;5.93;;;22.90;44.50;;;;;;20814;6780;117346;-86
2022/08/17 03:13:04;;;;;;;6.40;5.90;;;22.60;45.00;;;;;;20617;6780;337021;-87
2022/08/17 03:15:43;;;;;;;6.10;5.80;;;23.00;45.20;;;;;;20586;6780;308658;-87
2022/08/17 03:18:16;;;;;;;6.20;5.80;;;23.00;45.20;;;;;;20875;6774;116420;-87
2022/08/17 03:20:56;;;;;;;7.03;6.57;;;22.90;45.00;;;;;;20644;6754;306079;-95
2022/08/17 03:23:29;;;;;;;6.33;5.90;;;22.70;45.10;;;;;;20821;6778;117399;-87
2022/08/17 03:26:04;;;;;;;6.87;6.40;;;22.70;45.50;;;;;;20723;6826;119119;-87
2022/08/17 03:28:40;;;;;;;7.47;6.77;;;22.40;45.50;;;;;;20982;6710;117452;-87
2022/08/17 03:31:17;;;;;;;7.73;7.07;;;22.10;45.90;;;;;;20964;6738;116971;-87
2022/08/17 03:33:51;;;;;;;6.67;6.23;;;21.80;46.30;;;;;;20990;6743;116103;-86
2022/08/17 03:36:27;;;;;;;6.80;6.40;;;21.70;46.70;;;;;;20616;6743;307553;-88
2022/08/17 03:39:02;;;;;;;7.10;6.70;;;21.90;47.20;;;;;;20846;6776;117117;-86
2022/08/17 03:41:39;;;;;;;6.40;5.97;;;21.90;46.80;;;;;;20852;6770;117099;-87
2022/08/17 03:44:15;;;;;;;7.13;6.73;;;21.70;46.80;;;;;;20855;6770;117414;-87
2022/08/17 03:58:33;;;;;;;6.37;6.07;;;21.50;47.10;;;;;;20902;6760;116150;-87
2022/08/17 04:01:08;;;;;;;6.73;6.37;;;21.40;47.40;;;;;;20676;6760;288837;-87
2022/08/17 04:03:44;;;;;;;8.02;7.50;;;21.70;47.90;;;;;;20680;6760;337940;-87
2022/08/17 04:06:19;;;;;;;7.67;7.10;;;22.10;47.00;;;;;;20832;6760;117449;-86
2022/08/17 04:08:55;;;;;;;7.77;7.13;;;21.90;46.80;;;;;;20975;6746;117481;-86
2022/08/17 04:11:31;;;;;;;8.80;8.20;;;21.60;47.10;;;;;;20751;6731;305215;-86
2022/08/17 04:14:07;;;;;;;8.43;7.87;;;21.80;47.30;;;;;;20936;6746;117020;-87
2022/08/17 04:16:43;;;;;;;8.20;7.62;;;21.70;47.20;;;;;;20610;6731;335823;-86
2022/08/17 04:19:18;;;;;;;7.60;7.17;;;21.80;47.20;;;;;;20845;6749;117756;-87
2022/08/17 04:21:56;;;;;;;8.13;7.63;;;21.90;47.80;;;;;;20678;6745;306954;-87
2022/08/17 04:24:30;;;;;;;7.97;7.47;;;21.90;47.10;;;;;;20900;6745;117302;-87
2022/08/17 04:27:06;;;;;;;7.67;7.27;;;21.80;47.10;;;;;;20753;6745;117870;-87
2022/08/17 04:29:41;;;;;;;7.63;6.93;;;21.50;47.40;;;;;;20877;6745;117040;-86
2022/08/17 04:32:17;;;;;;;7.97;7.47;;;21.30;47.60;;;;;;20885;6744;116865;-86
2022/08/17 04:34:53;;;;;;;7.93;7.43;;;21.20;47.80;;;;;;20681;6745;309182;-86
2022/08/17 04:37:28;;;;;;;7.77;7.27;;;21.50;47.70;;;;;;20774;6745;121217;-88
2022/08/17 04:42:45;;;;;;;7.97;7.40;;;21.40;47.50;;;;;;20340;6799;117559;-87
2022/08/17 04:45:21;;;;;;;7.43;6.87;;;21.30;47.70;;;;;;20928;6742;116877;-86
2022/08/17 04:47:57;;;;;;;7.20;6.80;;;21.60;48.40;;;;;;20682;6757;275645;-87
2022/08/17 04:50:36;;;;;;;7.77;7.30;;;21.60;47.70;;;;;;20672;6757;307291;-87
2022/08/17 04:53:11;;;;;;;7.97;7.57;;;22.10;46.90;;;;;;20892;6757;117087;-86
2022/08/17 04:55:47;;;;;;;7.53;7.13;;;22.20;46.80;;;;;;20638;6757;278145;-86
2022/08/17 04:58:24;;;;;;;7.60;7.10;;;22.40;46.50;;;;;;20683;6757;334245;-87
2022/08/17 05:01:00;;;;;;;7.60;7.00;;;22.70;45.70;;;;;;20882;6757;119722;-86
2022/08/17 05:03:40;;;;;;;8.90;7.37;;;22.70;45.70;;;;;;20882;6774;117493;-87
2022/08/17 05:06:13;;;;;;;7.73;6.90;;;22.40;45.90;;;;;;20750;6768;119541;-86
2022/08/17 05:08:46;;;;;;;7.23;6.83;;;22.30;46.30;;;;;;20712;6734;280260;-86
2022/08/17 05:11:21;;;;;;;7.35;6.95;;;22.50;46.00;;;;;;20704;6734;336354;-87
2022/08/17 05:13:57;;;;;;;7.27;6.73;;;22.90;45.50;;;;;;20908;6731;117016;-86
2022/08/17 05:16:33;;;;;;;7.70;7.10;;;22.90;45.40;;;;;;20595;6791;308947;-87
2022/08/17 05:19:09;;;;;;;7.25;6.80;;;23.10;45.30;;;;;;20683;6749;308170;-86
2022/08/17 05:21:45;;;;;;;7.07;6.67;;;23.40;45.00;;;;;;20702;6749;279143;-86
2022/08/17 05:24:22;;;;;;;7.07;6.57;;;23.60;44.70;;;;;;20658;6749;320703;-87
2022/08/17 05:26:59;;;;;;;7.20;6.70;;;23.80;44.30;;;;;;20763;6809;117316;-87
2022/08/17 05:29:35;;;;;;;6.80;6.40;;;23.60;44.50;;;;;;20878;6749;117030;-87
2022/08/17 05:32:11;;;;;;;7.60;7.20;;;23.30;44.90;;;;;;20647;6749;299205;-87
2022/08/17 05:34:46;;;;;;;7.00;6.50;;;23.30;44.90;;;;;;20872;6749;117102;-86
2022/08/17 05:37:22;;;;;;;8.13;7.37;;;23.20;45.00;;;;;;20677;6749;117551;-87
2022/08/17 05:39:57;;;;;;;8.20;7.60;;;22.90;45.30;;;;;;20654;6749;276744;-87
2022/08/17 05:42:34;;;;;;;8.05;7.55;;;23.10;45.20;;;;;;20661;6749;308199;-86
2022/08/17 05:45:10;;;;;;;8.07;7.50;;;23.40;44.70;;;;;;20884;6749;117963;-87
2022/08/17 05:47:45;;;;;;;8.23;7.63;;;23.30;44.90;;;;;;20660;6749;281368;-87
2022/08/17 05:50:21;;;;;;;7.80;7.30;;;23.30;45.70;;;;;;20672;6745;335144;-87
2022/08/17 05:53:00;;;;;;;8.37;7.77;;;23.60;44.70;;;;;;20889;6745;117588;-87
2022/08/17 05:55:55;;;;;;;7.80;7.13;;;23.50;44.70;;;;;;20848;6745;117258;-86
2022/08/17 05:58:54;;;;;;;7.43;6.90;;;23.30;45.10;;;;;;20885;6745;117217;-87
2022/08/17 06:01:43;;;;;;;6.73;6.30;;;23.20;45.50;;;;;;20930;6745;117100;-86
2022/08/17 06:04:25;;;;;;;6.60;6.03;;;23.10;45.70;;;;;;20960;6745;68660;-87
2022/08/17 06:07:01;;;;;;;6.90;6.50;;;23.20;45.80;;;;;;20511;6804;281588;-93
2022/08/17 06:10:13;;;;;;;6.50;6.10;;;23.60;45.00;;;;;;20680;6745;278638;-87
2022/08/17 06:13:05;;;;;;;5.47;5.17;;;24.20;44.20;;;;;;20891;6745;117067;-89
2022/08/17 06:15:41;;;;;;;6.30;5.70;;;24.20;43.90;;;;;;20622;6745;308216;-87
2022/08/17 06:18:17;;;;;;;6.17;5.77;;;24.90;43.20;;;;;;20645;6749;307508;-87
2022/08/17 06:20:52;;;;;;;5.70;5.40;;;24.90;43.20;;;;;;20663;6749;303197;-87
2022/08/17 06:23:29;;;;;;;6.32;5.93;;;25.60;41.40;;;;;;20666;6749;307903;-87
2022/08/17 06:26:04;;;;;;;6.32;5.82;;;25.60;42.00;;;;;;20519;6749;340261;-87
2022/08/17 06:28:40;;;;;;;6.10;5.70;;;25.80;41.60;;;;;;20672;6749;277040;-87
2022/08/17 06:31:21;;;;;;;6.00;5.60;;;26.00;41.50;;;;;;20672;6749;282892;-87
2022/08/17 06:33:57;;;;;;;6.07;5.67;;;26.00;41.50;;;;;;20616;6749;307249;-86
2022/08/17 06:36:55;;;;;;;6.40;5.80;;;26.10;41.60;;;;;;20758;6749;117365;-87
2022/08/17 06:39:34;;;;;;;6.57;5.97;;;26.00;42.00;;;;;;20665;6749;277153;-87
2022/08/17 06:42:09;;;;;;;5.73;5.37;;;26.10;42.30;;;;;;20859;6749;117449;-85
2022/08/17 06:44:46;;;;;;;6.23;5.80;;;26.10;42.30;;;;;;20183;6809;118779;-85
2022/08/17 06:47:31;;;;;;;6.27;5.90;;;26.00;42.40;;;;;;20717;6749;117901;-85
2022/08/17 06:50:19;;;;;;;6.47;6.07;;;25.90;42.70;;;;;;20679;6746;308302;-85
2022/08/17 06:53:16;;;;;;;6.03;5.63;;;26.80;41.70;;;;;;20690;6762;308408;-85
2022/08/17 06:56:04;;;;;;;5.80;5.37;;;26.80;41.10;;;;;;20839;6747;117649;-85
2022/08/17 06:58:40;;;;;;;5.90;5.50;;;27.30;40.90;;;;;;20668;6796;277587;-85
2022/08/17 07:01:16;;;;;;;6.10;5.60;;;27.20;40.30;;;;;;20563;6833;306300;-86
2022/08/17 07:03:58;;;;;;;5.67;5.33;;;27.80;39.40;;;;;;20820;6777;148893;-86
2022/08/17 07:06:38;;;;;;;6.03;5.60;;;27.90;39.40;;;;;;20725;6764;117931;-87
2022/08/17 07:09:30;;;;;;;5.80;5.40;;;27.80;39.80;;;;;;20890;6747;117278;-85
2022/08/17 07:12:15;;;;;;;5.73;5.23;;;27.70;40.00;;;;;;20665;6747;281256;-85
2022/08/17 07:14:57;;;;;;;5.90;5.40;;;28.00;40.00;;;;;;20671;6747;306614;-87
2022/08/17 07:17:33;;;;;;;6.03;5.53;;;28.90;38.70;;;;;;20507;6747;311627;-87
2022/08/17 07:20:09;;;;;;;5.43;5.10;;;28.90;38.70;;;;;;20709;6731;275596;-88
2022/08/17 07:23:11;;;;;;;6.27;5.67;;;29.20;37.40;;;;;;20955;6731;117068;-87
2022/08/17 07:25:47;;;;;;;5.80;5.33;;;29.10;37.90;;;;;;20813;6747;117971;-87
2022/08/17 07:28:22;;;;;;;6.00;5.50;;;28.80;38.60;;;;;;20879;6746;117279;-87
2022/08/17 07:30:58;;;;;;;6.50;6.00;;;28.60;39.00;;;;;;20627;6761;307460;-86
2022/08/17 07:33:33;;;;;;;6.30;5.70;;;28.70;38.10;;;;;;20838;6765;117103;-87
2022/08/17 07:36:23;;;;;;;6.47;5.87;;;28.70;39.20;;;;;;20555;6747;308646;-89
2022/08/17 07:38:58;;;;;;;6.50;5.82;;;28.60;38.80;;;;;;20685;6747;336006;-86
2022/08/17 07:41:33;;;;;;;5.93;5.37;;;28.80;38.40;;;;;;20970;6732;117469;-86
2022/08/17 07:44:09;;;;;;;6.27;5.77;;;28.60;38.50;;;;;;20903;6747;117023;-86
2022/08/17 07:49:45;;;;;;;6.15;5.60;;;28.20;39.40;;;;;;20749;6732;334576;-86
2022/08/17 07:52:30;;;;;;;6.23;5.60;;;28.10;39.30;;;;;;20934;6730;117296;-87
2022/08/17 07:55:05;;;;;;;9.00;5.80;;;28.10;39.20;;;;;;20954;6730;117110;-87
2022/08/17 07:57:41;;;;;;;10.10;6.30;;;27.90;39.30;;;;;;20507;6843;310871;-87
2022/08/17 08:00:18;;;;;;;6.40;5.80;;;28.00;39.50;;;;;;20725;6730;306881;-86
2022/08/17 08:02:59;;;;;;;5.40;5.10;;;28.30;38.40;;;;;;20739;6730;277769;-87
2022/08/17 08:05:36;;;;;;;6.20;5.60;;;28.60;38.20;;;;;;20705;6730;278132;-87
2022/08/17 08:08:21;;;;;;;5.97;5.07;;;28.80;37.90;;;;;;20984;6730;73677;-86
2022/08/17 08:11:03;;;;;;;5.37;4.87;;;28.80;38.00;;;;;;20984;6787;116519;-86
2022/08/17 08:13:43;;;;;;;4.83;4.53;;;28.60;37.90;;;;;;20983;6730;117242;-87
2022/08/17 08:16:23;;;;;;;5.47;5.00;;;28.50;38.00;;;;;;20664;6730;300473;-87
2022/08/17 08:18:59;;;;;;;5.87;5.47;;;28.80;37.50;;;;;;20982;6730;117809;-87
2022/08/17 08:21:34;;;;;;;5.50;5.10;;;28.80;37.50;;;;;;20654;6746;307284;-88
2022/08/17 08:24:21;;;;;;;4.90;4.60;;;29.10;37.40;;;;;;20894;6746;117783;-88
2022/08/17 08:26:56;;;;;;;5.40;5.00;;;29.10;37.30;;;;;;20804;6741;116452;-87
2022/08/17 08:29:55;;;;;;;6.60;5.13;;;28.90;37.40;;;;;;20689;6764;306396;-94
2022/08/17 08:32:45;;;;;;;5.17;4.87;;;29.00;37.10;;;;;;20857;6766;117691;-87
2022/08/17 08:35:32;;;;;;;5.20;4.90;;;28.90;37.20;;;;;;20886;6748;117597;-87
2022/08/17 08:38:14;;;;;;;6.50;4.70;;;28.70;37.60;;;;;;20876;6763;122984;-87
2022/08/17 08:41:14;;;;;;;4.77;4.57;;;28.40;37.90;;;;;;20793;6761;117242;-87
2022/08/17 08:43:59;;;;;;;5.00;4.60;;;28.20;37.70;;;;;;20860;6766;116972;-87
2022/08/17 08:47:00;;;;;;;5.10;4.80;;;28.10;37.60;;;;;;20778;6781;117419;-92
2022/08/17 08:49:43;;;;;;;4.80;4.60;;;27.80;38.30;;;;;;20968;6769;116165;-86
2022/08/17 08:52:32;;;;;;;4.87;4.57;;;27.80;38.30;;;;;;20830;6774;117332;-87
2022/08/17 08:55:07;;;;;;;5.60;4.93;;;27.70;39.00;;;;;;20922;6765;116091;-87
2022/08/17 08:57:42;;;;;;;5.20;4.90;;;27.60;39.30;;;;;;20895;6750;117163;-87
2022/08/17 09:00:19;;;;;;;5.43;5.10;;;27.50;39.50;;;;;;20832;6810;117535;-93
2022/08/17 09:03:18;;;;;;;8.73;5.07;;;27.50;39.50;;;;;;20926;6750;116973;-93
2022/08/17 09:06:06;;;;;;;5.40;5.10;;;27.50;39.60;;;;;;20686;6750;306575;-86
2022/08/17 09:08:52;;;;;;;5.17;4.87;;;27.90;39.20;;;;;;20756;6750;276169;-87
2022/08/17 09:11:53;;;;;;;5.40;5.10;;;28.40;37.50;;;;;;20711;6739;277230;-87
2022/08/17 09:14:47;;;;;;;5.55;5.07;;;29.00;37.40;;;;;;20709;6739;334971;-87
2022/08/17 09:17:28;;;;;;;5.43;5.10;;;29.00;37.40;;;;;;20761;6739;117379;-87
2022/08/17 09:20:25;;;;;;;5.33;5.00;;;28.80;37.60;;;;;;20659;6750;277566;-87
2022/08/17 09:23:07;;;;;;;5.28;4.97;;;28.80;37.60;;;;;;20682;6750;335364;-86
2022/08/17 09:25:57;;;;;;;5.32;5.12;;;29.00;36.80;;;;;;20643;6747;306961;-87
2022/08/17 09:28:33;;;;;;;5.30;4.90;;;29.20;36.70;;;;;;20565;6780;309097;-87
2022/08/17 09:31:10;;;;;;;4.87;4.57;;;29.30;37.20;;;;;;20583;6780;307630;-87
2022/08/17 09:33:45;;;;;;;5.27;4.77;;;29.40;37.00;;;;;;20676;6747;277742;-87
2022/08/17 09:36:25;;;;;;;5.80;5.07;;;29.40;37.70;;;;;;20729;6781;116802;-87
2022/08/17 09:39:00;;;;;;;4.57;4.27;;;29.10;37.70;;;;;;20903;6744;117047;-86
2022/08/17 09:41:42;;;;;;;4.97;4.60;;;28.60;38.10;;;;;;20690;6744;306163;-86
2022/08/17 09:44:21;;;;;;;4.87;4.50;;;28.60;38.80;;;;;;20703;6744;280812;-87
2022/08/17 09:47:00;;;;;;;4.70;4.40;;;28.80;37.70;;;;;;20787;6744;117744;-87
2022/08/17 09:49:42;;;;;;;4.80;4.60;;;28.70;37.60;;;;;;20902;6744;117634;-87
2022/08/17 09:52:17;;;;;;;4.70;4.30;;;28.40;37.80;;;;;;20679;6744;277665;-87
2022/08/17 09:54:54;;;;;;;4.70;4.30;;;28.80;37.40;;;;;;20690;6744;309206;-86
2022/08/17 09:57:36;;;;;;;4.43;4.23;;;28.80;37.40;;;;;;20737;6744;118311;-87
2022/08/17 10:00:26;;;;;;;4.43;4.23;;;28.80;38.20;;;;;;20600;6815;121152;-87
2022/08/17 10:03:22;;;;;;;3.90;3.70;;;28.30;37.50;;;;;;20907;6744;119044;-87
2022/08/17 10:06:05;;;;;;;4.40;4.20;;;28.30;37.50;;;;;;20824;6744;120035;-87
2022/08/17 10:09:07;;;;;;;6.80;4.50;;;28.10;37.30;;;;;;20889;6800;117611;-87
2022/08/17 10:14:56;;;;;;;4.63;4.33;;;28.40;36.60;;;;;;20687;6744;325856;-87
2022/08/17 10:17:32;;;;;;;4.37;4.03;;;28.90;35.40;;;;;;20724;6744;117291;-87
2022/08/17 10:20:08;;;;;;;10.37;4.60;;;28.90;35.70;;;;;;20793;6800;120284;-86
2022/08/17 10:26:11;;;;;;;4.65;4.35;;;29.40;34.80;;;;;;20648;6747;337720;-87
2022/08/17 10:28:29;;;;;;;4.67;4.47;;;29.40;35.10;;;;;;20880;6785;116152;-87
2022/08/17 10:31:04;;;;;;;4.53;4.33;;;29.40;35.10;;;;;;20702;6733;297518;-87
2022/08/17 10:33:42;;;;;;;4.87;4.50;;;29.50;34.50;;;;;;20663;6751;305563;-87
2022/08/17 10:36:18;;;;;;;4.80;4.47;;;29.70;34.20;;;;;;20751;6772;118304;-87
2022/08/17 10:39:07;;;;;;;4.30;4.03;;;29.60;34.50;;;;;;20844;6762;117454;-87
2022/08/17 10:41:43;;;;;;;4.57;4.28;;;29.40;34.90;;;;;;20683;6747;278991;-87
2022/08/17 10:44:20;;;;;;;4.87;4.40;;;29.50;34.30;;;;;;20792;6777;122535;-87
2022/08/17 10:47:11;;;;;;;4.63;4.37;;;29.60;34.50;;;;;;20682;6761;117806;-87
2022/08/17 10:49:48;;;;;;;4.67;4.17;;;29.60;34.80;;;;;;20612;6772;276901;-87
2022/08/17 10:52:21;;;;;;;4.32;4.12;;;30.00;34.70;;;;;;20255;6855;281152;-86
2022/08/17 10:55:00;;;;;;;4.67;4.33;;;30.50;32.90;;;;;;20827;6765;117164;-87
2022/08/17 10:57:39;;;;;;;4.70;4.30;;;30.60;33.20;;;;;;20543;6779;117525;-86
2022/08/17 11:00:14;;;;;;;4.60;4.30;;;30.50;33.40;;;;;;20574;6773;307786;-87
2022/08/17 11:02:51;;;;;;;4.23;3.90;;;30.70;33.20;;;;;;20497;6844;281157;-86
2022/08/17 11:05:49;;;;;;;4.53;4.13;;;31.10;32.10;;;;;;20501;6798;308127;-87
2022/08/17 11:08:36;;;;;;;4.20;3.90;;;31.40;31.70;;;;;;20552;6783;309322;-87
2022/08/17 11:11:33;;;;;;;4.00;3.80;;;31.70;31.00;;;;;;20719;6798;119546;-87
2022/08/17 11:14:16;;;;;;;4.30;4.03;;;31.40;31.30;;;;;;20724;6788;117375;-87
2022/08/17 11:17:05;;;;;;;4.20;4.00;;;30.90;32.00;;;;;;20450;6782;308831;-87
2022/08/17 11:19:58;;;;;;;4.45;4.15;;;31.00;33.00;;;;;;20528;6797;283218;-87
2022/08/17 11:22:56;;;;;;;4.40;4.10;;;31.00;32.90;;;;;;20573;6777;306586;-87
2022/08/17 11:25:43;;;;;;;4.33;4.13;;;31.10;32.70;;;;;;20550;6782;279383;-87
2022/08/17 11:28:18;;;;;;;4.97;3.97;;;31.20;32.30;;;;;;20771;6777;118206;-87
2022/08/17 11:30:54;;;;;;;4.10;3.80;;;30.80;32.60;;;;;;20564;6782;281066;-87
2022/08/17 11:33:32;;;;;;;4.10;3.90;;;30.70;32.10;;;;;;20611;6774;307746;-87
2022/08/17 11:36:29;;;;;;;3.75;3.55;;;30.80;32.00;;;;;;20501;6775;309535;-87
2022/08/17 11:39:24;;;;;;;4.13;3.93;;;30.80;31.50;;;;;;20626;6763;277640;-87
2022/08/17 11:42:10;;;;;;;3.97;3.67;;;30.80;31.50;;;;;;20807;6778;117573;-87
2022/08/17 11:44:51;;;;;;;4.00;3.80;;;30.30;32.20;;;;;;19783;7112;120039;-87
2022/08/17 11:53:50;;;;;;;4.33;4.03;;;28.60;35.20;;;;;;20844;6769;117701;-87
2022/08/17 11:56:31;;;;;;;4.20;3.90;;;28.60;35.10;;;;;;20546;6784;295148;-87
2022/08/17 11:59:38;;;;;;;4.03;3.70;;;28.80;35.80;;;;;;20803;6774;67117;-87
2022/08/17 12:02:25;;;;;;;4.60;4.20;;;28.70;35.60;;;;;;20811;6773;120596;-86
2022/08/17 12:05:01;;;;;;;4.57;4.27;;;28.50;35.90;;;;;;20864;6766;117487;-86
2022/08/17 12:07:36;;;;;;;4.10;3.90;;;28.50;36.40;;;;;;20592;6759;306938;-87
2022/08/17 12:10:11;;;;;;;3.90;3.70;;;28.90;36.50;;;;;;20793;6774;119166;-87
2022/08/17 12:12:47;;;;;;;4.07;3.80;;;29.20;36.10;;;;;;20629;6763;277762;-87
2022/08/17 12:15:29;;;;;;;4.33;4.00;;;29.60;36.00;;;;;;20638;6763;277605;-87
2022/08/17 12:18:05;;;;;;;4.93;4.57;;;30.00;35.30;;;;;;20823;6746;120361;-87
2022/08/17 12:20:40;;;;;;;5.60;3.63;;;30.10;34.90;;;;;;20750;6785;117891;-88
2022/08/17 12:23:29;;;;;;;3.93;3.73;;;30.10;34.90;;;;;;20831;6774;116275;-87
2022/08/17 12:26:08;;;;;;;3.90;3.80;;;30.00;34.70;;;;;;20721;6770;129252;-87
2022/08/17 12:28:44;;;;;;;3.90;3.70;;;30.00;34.70;;;;;;20607;6769;306674;-87
2022/08/17 12:31:23;;;;;;;4.10;3.90;;;30.30;32.50;;;;;;20606;6755;307622;-87
2022/08/17 12:33:59;;;;;;;3.90;3.70;;;30.80;31.70;;;;;;20572;6768;333676;-87
2022/08/17 12:36:35;;;;;;;4.25;4.05;;;31.20;29.80;;;;;;20542;6764;307350;-87
2022/08/17 12:39:11;;;;;;;4.00;3.80;;;31.50;29.30;;;;;;20613;6764;301243;-87
2022/08/17 12:41:47;;;;;;;4.37;4.07;;;31.70;29.40;;;;;;20625;6759;307056;-88
2022/08/17 12:44:29;;;;;;;4.23;4.03;;;31.80;29.60;;;;;;20854;6755;117374;-87
2022/08/17 12:47:13;;;;;;;4.37;4.00;;;31.70;30.00;;;;;;20671;6771;117669;-87
2022/08/17 12:49:47;;;;;;;4.40;4.10;;;31.10;31.20;;;;;;20855;6757;117183;-87
2022/08/17 12:52:23;;;;;;;4.00;3.80;;;31.10;30.50;;;;;;20706;6742;305072;-87
2022/08/17 12:55:05;;;;;;;4.27;3.90;;;31.20;30.00;;;;;;20733;6727;276701;-87
2022/08/17 12:57:40;;;;;;;3.93;3.73;;;31.40;29.80;;;;;;20670;6813;117630;-87
2022/08/17 13:00:20;;;;;;;4.20;3.90;;;31.40;29.90;;;;;;20958;6730;116043;-86
2022/08/17 13:03:11;;;;;;;4.13;3.93;;;31.20;30.00;;;;;;20890;6760;116283;-87
2022/08/17 13:05:56;;;;;;;4.03;3.70;;;31.10;30.30;;;;;;20764;6768;120563;-87
2022/08/17 13:08:39;;;;;;;3.63;3.43;;;31.00;30.70;;;;;;20865;6763;117323;-87
2022/08/17 13:11:17;;;;;;;4.00;3.80;;;30.80;31.50;;;;;;20918;6756;116585;-87
2022/08/17 13:13:52;;;;;;;4.13;3.93;;;30.90;30.80;;;;;;20924;6737;119149;-87
2022/08/17 13:16:26;;;;;;;4.03;3.73;;;30.80;30.80;;;;;;20779;6792;117572;-87
2022/08/17 13:19:08;;;;;;;4.10;3.90;;;30.70;31.00;;;;;;20682;6756;277774;-87
2022/08/17 13:21:46;;;;;;;3.63;3.53;;;30.90;30.10;;;;;;20956;6737;117337;-87
2022/08/17 13:24:29;;;;;;;4.00;3.70;;;31.10;30.00;;;;;;20937;6748;116299;-86
2022/08/17 13:27:07;;;;;;;4.17;3.87;;;31.00;30.00;;;;;;20698;6752;117713;-87
2022/08/17 13:29:43;;;;;;;3.90;3.70;;;30.90;30.00;;;;;;20648;6749;335542;-87
2022/08/17 13:32:38;;;;;;;4.00;3.72;;;31.10;29.50;;;;;;20659;6744;335560;-88
2022/08/17 13:35:45;;;;;;;3.80;3.60;;;31.40;29.10;;;;;;20673;6747;305662;-87
2022/08/17 13:38:49;;;;;;;3.95;3.75;;;31.90;28.70;;;;;;20688;6744;277076;-87
2022/08/17 13:41:32;;;;;;;4.10;3.90;;;31.90;28.80;;;;;;20678;6747;336396;-87
2022/08/17 13:44:39;;;;;;;3.90;3.70;;;32.00;28.50;;;;;;20855;6747;117779;-88
2022/08/17 13:47:05;;;;;;;4.20;3.90;;;31.70;28.80;;;;;;20509;6747;308656;-89
2022/08/17 13:49:40;;;;;;;4.10;3.90;;;31.70;28.70;;;;;;20679;6747;295053;-87
2022/08/17 13:52:29;;;;;;;3.77;3.57;;;32.00;28.60;;;;;;20832;6756;117179;-87
2022/08/17 13:55:16;;;;;;;3.83;3.58;;;31.80;29.30;;;;;;21071;6504;305495;-87
2022/08/17 13:57:41;;;;;;;3.90;3.70;;;31.90;29.00;;;;;;20524;6850;279789;-86
2022/08/17 14:00:11;;;;;;;3.97;3.67;;;32.10;28.80;;;;;;20417;6850;310610;-86
2022/08/17 14:02:35;;;;;;;3.77;3.50;;;32.40;28.80;;;;;;20647;6873;117297;-86
2022/08/17 14:05:02;;;;;;;4.10;3.83;;;32.00;29.00;;;;;;20673;6867;118191;-87
2022/08/17 14:07:27;;;;;;;4.10;3.90;;;32.00;29.00;;;;;;20450;6867;309064;-87
2022/08/17 14:09:56;;;;;;;4.13;3.93;;;32.00;28.70;;;;;;20661;6867;118050;-87
2022/08/17 14:12:23;;;;;;;4.00;3.80;;;31.80;28.80;;;;;;20474;6866;280851;-86
2022/08/17 14:14:48;;;;;;;4.23;3.70;;;31.90;28.80;;;;;;20482;6866;284952;-86
2022/08/17 14:17:12;;;;;;;4.85;3.60;;;32.00;28.90;;;;;;20523;6851;279808;-86
2022/08/17 14:19:39;;;;;;;4.12;3.92;;;32.20;28.30;;;;;;20527;6851;308176;-87
2022/08/17 14:22:04;;;;;;;4.10;3.80;;;32.20;28.20;;;;;;20716;6846;120945;-86